Time;durP1;ratioP1;P1;durP2;ratioP2;P2;SDS_P1;SDS_P2;PMS_P1;PMS_P2;Temp;Humidity;BMP_temperature;BMP_pressure;BME280_temperature;BME280_humidity;BME280_pressure;Samples;Min_cycle;Max_cycle;Signal;HPM_P1;HPM_P2
2023/04/01 00:04:33;;;;;;;16.97;11.33;;;8.80;99.90;;;;;;10400583;28;20431;-77
2023/04/01 00:09:54;;;;;;;17.73;12.63;;;8.80;99.90;;;;;;10401571;28;20247;-78
2023/04/01 00:15:15;;;;;;;19.40;12.63;;;8.80;99.90;;;;;;10401489;28;20220;-77
2023/04/01 00:20:37;;;;;;;19.93;12.77;;;8.80;99.90;;;;;;10399687;28;20226;-77
2023/04/01 00:26:00;;;;;;;23.20;14.80;;;8.70;99.90;;;;;;10401087;28;20582;-77
2023/04/01 00:31:22;;;;;;;22.23;14.50;;;8.70;99.90;;;;;;10431085;28;20407;-77
2023/04/01 00:36:43;;;;;;;27.07;15.53;;;8.60;99.90;;;;;;10405567;28;20243;-76
2023/04/01 00:42:04;;;;;;;27.03;15.10;;;8.40;99.90;;;;;;10385183;28;20248;-76
2023/04/01 00:47:27;;;;;;;26.03;14.30;;;8.50;99.90;;;;;;10399151;28;20212;-77
2023/04/01 00:52:48;;;;;;;17.00;11.47;;;8.50;99.90;;;;;;10399370;28;20202;-77
2023/04/01 00:58:14;;;;;;;18.17;11.70;;;8.40;99.90;;;;;;10416396;28;20251;-76
2023/04/01 01:03:36;;;;;;;16.93;9.87;;;8.30;99.90;;;;;;10430061;28;20280;-78
2023/04/01 01:09:12;;;;;;;12.17;8.00;;;8.40;99.90;;;;;;10398618;28;20242;-79
2023/04/01 01:14:49;;;;;;;10.03;6.43;;;8.30;99.90;;;;;;10384376;28;20508;-79
2023/04/01 01:20:39;;;;;;;7.57;4.63;;;8.30;99.90;;;;;;10401835;28;20490;-79
2023/04/01 01:26:25;;;;;;;5.37;4.20;;;8.30;99.90;;;;;;10397612;28;20449;-79
2023/04/01 01:32:21;;;;;;;8.07;5.40;;;8.30;99.90;;;;;;10428111;28;20230;-77
2023/04/01 01:37:43;;;;;;;9.00;6.23;;;8.20;99.90;;;;;;10398054;28;20195;-77
2023/04/01 01:43:08;;;;;;;8.83;6.10;;;8.10;99.90;;;;;;10404623;28;20222;-78
2023/04/01 01:48:32;;;;;;;11.93;7.83;;;8.20;99.90;;;;;;10412550;28;20235;-77
2023/04/01 01:53:55;;;;;;;9.57;6.97;;;8.10;99.90;;;;;;10396702;28;20238;-76
2023/04/01 01:59:23;;;;;;;12.30;8.30;;;8.10;99.90;;;;;;10409390;28;20506;-79
2023/04/01 02:04:47;;;;;;;17.17;10.80;;;7.90;99.90;;;;;;10405259;28;20212;-76
2023/04/01 02:10:08;;;;;;;10.43;8.67;;;7.80;99.90;;;;;;10395822;28;20226;-78
2023/04/01 02:15:37;;;;;;;10.77;7.47;;;7.60;99.90;;;;;;10396094;28;20211;-79
2023/04/01 02:21:00;;;;;;;5.33;4.80;;;7.40;99.90;;;;;;10395624;28;20435;-78
2023/04/01 02:26:23;;;;;;;4.67;2.97;;;7.30;99.90;;;;;;10395703;28;20246;-77
2023/04/01 02:31:44;;;;;;;4.10;2.80;;;7.30;99.90;;;;;;10418398;28;20271;-79
2023/04/01 02:37:06;;;;;;;3.60;3.03;;;7.10;99.90;;;;;;10380854;28;20281;-78
2023/04/01 02:42:27;;;;;;;3.13;2.80;;;7.10;99.90;;;;;;10394906;28;20225;-79
2023/04/01 02:47:48;;;;;;;3.90;3.40;;;7.10;99.90;;;;;;10380026;28;20338;-78
2023/04/01 02:53:10;;;;;;;5.73;4.03;;;7.00;99.90;;;;;;10394596;28;20198;-77
2023/04/01 02:58:31;;;;;;;9.13;5.80;;;6.90;99.90;;;;;;10400969;28;20213;-76
2023/04/01 03:03:52;;;;;;;4.17;2.93;;;6.80;99.90;;;;;;10420579;28;20209;-77
2023/04/01 03:09:14;;;;;;;3.50;2.77;;;6.50;99.90;;;;;;10380779;28;20235;-76
2023/04/01 03:14:35;;;;;;;2.97;2.67;;;6.40;99.90;;;;;;10408216;28;20189;-76
2023/04/01 03:19:56;;;;;;;3.73;2.70;;;6.40;99.90;;;;;;10383747;28;20202;-76
2023/04/01 03:25:18;;;;;;;3.53;2.73;;;6.40;99.90;;;;;;10379968;28;20248;-76
2023/04/01 03:30:39;;;;;;;3.10;2.50;;;6.40;99.90;;;;;;10419679;28;20408;-77
2023/04/01 03:36:01;;;;;;;4.67;3.50;;;6.30;99.90;;;;;;10412603;28;20205;-76
2023/04/01 03:41:22;;;;;;;5.17;3.73;;;6.30;99.90;;;;;;10407761;28;20389;-78
2023/04/01 03:46:43;;;;;;;3.67;3.30;;;6.20;99.90;;;;;;10379805;28;20515;-78
2023/04/01 03:52:07;;;;;;;11.47;7.30;;;6.20;99.90;;;;;;10408451;28;20246;-78
2023/04/01 03:57:30;;;;;;;4.77;3.93;;;6.20;99.90;;;;;;10429651;28;20232;-76
2023/04/01 04:02:57;;;;;;;4.67;3.17;;;5.90;99.90;;;;;;10393492;28;20246;-76
2023/04/01 04:08:24;;;;;;;4.93;3.87;;;5.70;99.90;;;;;;10387630;28;20251;-77
2023/04/01 04:13:45;;;;;;;4.27;3.50;;;5.50;99.90;;;;;;10415015;28;20196;-76
2023/04/01 04:19:06;;;;;;;7.10;4.97;;;5.50;99.90;;;;;;10400793;28;20230;-77
2023/04/01 04:24:27;;;;;;;17.33;11.47;;;5.50;99.90;;;;;;10401674;28;20204;-79
2023/04/01 04:30:09;;;;;;;21.63;11.93;;;5.50;99.90;;;;;;10422059;28;20236;-77
2023/04/01 04:35:30;;;;;;;11.33;8.43;;;5.50;99.90;;;;;;10414404;28;20422;-78
2023/04/01 04:40:52;;;;;;;24.50;14.23;;;5.60;99.90;;;;;;10399890;28;20200;-76
2023/04/01 04:46:13;;;;;;;10.47;7.37;;;5.60;99.90;;;;;;10398917;28;20294;-77
2023/04/01 04:51:35;;;;;;;5.43;4.70;;;5.60;99.90;;;;;;10399412;28;20406;-76
2023/04/01 04:56:56;;;;;;;8.73;6.00;;;5.60;99.90;;;;;;10406619;28;20205;-80
2023/04/01 05:02:19;;;;;;;13.93;8.93;;;5.60;99.90;;;;;;10439312;28;20271;-76
2023/04/01 05:07:40;;;;;;;7.73;5.53;;;5.50;99.90;;;;;;10399143;28;20196;-76
2023/04/01 05:13:01;;;;;;;7.43;5.47;;;5.60;99.90;;;;;;10398674;28;20223;-76
2023/04/01 05:18:23;;;;;;;16.10;11.03;;;5.60;99.90;;;;;;10397553;28;20283;-79
2023/04/01 05:23:45;;;;;;;12.57;7.77;;;5.70;99.90;;;;;;10384154;28;20286;-78
2023/04/01 05:29:06;;;;;;;21.37;11.60;;;5.60;99.90;;;;;;10396990;28;20248;-79
2023/04/01 05:34:27;;;;;;;8.97;5.63;;;5.50;99.90;;;;;;10418548;28;20203;-78
2023/04/01 05:39:49;;;;;;;16.67;9.17;;;5.40;99.90;;;;;;10425164;28;20246;-78
2023/04/01 05:45:11;;;;;;;9.07;6.30;;;5.30;99.90;;;;;;10424365;28;20534;-77
2023/04/01 05:50:55;;;;;;;14.13;9.50;;;5.30;99.90;;;;;;10420845;28;20417;-77
2023/04/01 05:56:16;;;;;;;12.20;6.83;;;5.40;99.90;;;;;;10438338;28;20192;-77
2023/04/01 06:01:42;;;;;;;22.03;13.87;;;5.50;99.90;;;;;;10430395;28;20259;-79
2023/04/01 06:07:17;;;;;;;18.07;11.90;;;5.50;99.90;;;;;;10396720;28;20244;-79
2023/04/01 06:12:50;;;;;;;9.37;7.27;;;5.40;99.90;;;;;;10396446;28;20392;-78
2023/04/01 06:18:40;;;;;;;7.00;5.57;;;5.40;99.90;;;;;;10398892;28;20239;-78
2023/04/01 06:24:27;;;;;;;5.83;4.90;;;5.60;99.90;;;;;;10396143;28;20204;-78
2023/04/01 06:29:54;;;;;;;8.07;5.53;;;5.70;99.90;;;;;;10402667;28;20246;-78
2023/04/01 06:35:31;;;;;;;18.80;14.27;;;5.70;99.90;;;;;;10421828;28;20216;-78
2023/04/01 06:41:04;;;;;;;18.37;11.80;;;5.70;99.90;;;;;;10436549;28;20200;-78
2023/04/01 06:47:19;;;;;;;9.80;7.43;;;5.70;99.90;;;;;;10410059;28;20200;-79
2023/04/01 06:53:21;;;;;;;14.70;9.93;;;5.60;99.90;;;;;;10311919;28;20211;-79
2023/04/01 06:59:28;;;;;;;9.23;5.83;;;5.70;99.90;;;;;;10327543;28;20213;-77
2023/04/01 07:04:53;;;;;;;18.47;10.30;;;5.80;99.90;;;;;;10298068;28;20198;-79
2023/04/01 07:10:33;;;;;;;25.77;15.37;;;5.60;99.90;;;;;;10297628;28;20398;-80
2023/04/01 07:16:18;;;;;;;33.07;21.70;;;5.80;99.90;;;;;;10310588;28;20402;-80
2023/04/01 07:21:55;;;;;;;26.93;14.03;;;5.90;99.90;;;;;;10294906;28;20239;-77
2023/04/01 07:27:26;;;;;;;49.63;23.87;;;5.60;99.90;;;;;;10325932;28;20210;-78
2023/04/01 07:33:16;;;;;;;30.37;15.90;;;5.50;99.90;;;;;;10420082;28;20221;-78
2023/04/01 07:39:21;;;;;;;7.27;4.50;;;5.40;99.90;;;;;;10407217;28;20231;-78
2023/04/01 07:45:33;;;;;;;7.43;5.17;;;5.40;99.90;;;;;;10410675;28;20549;-78
2023/04/01 07:50:55;;;;;;;6.30;4.33;;;5.40;99.90;;;;;;10395736;28;20243;-78
2023/04/01 07:56:35;;;;;;;4.03;2.83;;;5.60;99.90;;;;;;10438351;28;20215;-76
2023/04/01 08:02:28;;;;;;;8.33;4.73;;;5.50;99.90;;;;;;10398607;28;20223;-78
2023/04/01 08:08:13;;;;;;;14.07;9.50;;;5.50;99.90;;;;;;10390818;28;20225;-77
2023/04/01 08:14:40;;;;;;;11.23;5.23;;;5.60;99.90;;;;;;10314567;28;20228;-77
2023/04/01 08:20:47;;;;;;;10.30;6.10;;;5.70;99.90;;;;;;10172786;29;20231;-79
2023/04/01 08:26:14;;;;;;;10.67;6.03;;;5.70;99.90;;;;;;10142126;29;20204;-78
2023/04/01 08:31:52;;;;;;;4.13;3.00;;;5.60;99.90;;;;;;10140792;29;20242;-77
2023/04/01 08:37:22;;;;;;;31.57;15.73;;;5.50;99.90;;;;;;10112570;29;20473;-77
2023/04/01 08:43:25;;;;;;;5.83;4.10;;;5.50;99.90;;;;;;10142118;29;20261;-77
2023/04/01 08:49:11;;;;;;;6.47;3.57;;;5.40;99.90;;;;;;10230629;28;20257;-77
2023/04/01 08:55:01;;;;;;;6.33;3.60;;;5.50;99.90;;;;;;10327626;28;20204;-76
2023/04/01 09:01:10;;;;;;;3.83;3.00;;;5.50;99.90;;;;;;10396620;28;20471;-80
2023/04/01 09:06:38;;;;;;;4.23;3.23;;;5.50;99.90;;;;;;10399231;28;20492;-77
2023/04/01 09:12:36;;;;;;;20.57;11.23;;;5.50;99.90;;;;;;10384505;28;20634;-78
2023/04/01 09:18:06;;;;;;;6.97;5.07;;;5.60;99.90;;;;;;10402206;28;20410;-77
2023/04/01 09:23:55;;;;;;;6.80;4.43;;;5.40;99.90;;;;;;10424620;28;20208;-77
2023/04/01 09:29:31;;;;;;;10.13;5.73;;;5.50;99.90;;;;;;10439339;28;20247;-78
2023/04/01 09:35:25;;;;;;;8.60;5.53;;;5.40;99.90;;;;;;10434588;28;20209;-77
2023/04/01 09:41:17;;;;;;;5.20;4.70;;;5.50;99.90;;;;;;10438556;28;20246;-77
2023/04/01 09:47:31;;;;;;;4.73;3.40;;;5.40;99.90;;;;;;10414744;28;20212;-77
2023/04/01 09:52:55;;;;;;;6.40;3.63;;;5.40;99.90;;;;;;10383318;28;20235;-78
2023/04/01 09:58:38;;;;;;;6.37;4.20;;;5.20;99.90;;;;;;10415946;28;20498;-77
2023/04/01 10:04:25;;;;;;;4.90;3.97;;;5.10;99.90;;;;;;10400295;28;20222;-77
2023/04/01 10:10:18;;;;;;;12.03;8.10;;;5.00;99.90;;;;;;10369069;28;20223;-78
2023/04/01 10:16:06;;;;;;;8.73;4.87;;;5.10;99.90;;;;;;10383527;28;20365;-79
2023/04/01 10:21:52;;;;;;;14.47;6.93;;;5.20;99.90;;;;;;10385618;28;20230;-78
2023/04/01 10:27:53;;;;;;;9.93;5.33;;;5.20;99.90;;;;;;10382058;28;20641;-77
2023/04/01 10:33:47;;;;;;;3.93;3.03;;;5.20;99.90;;;;;;10407632;28;20282;-76
2023/04/01 10:39:21;;;;;;;3.13;2.30;;;5.10;99.90;;;;;;10422762;28;20198;-79
2023/04/01 10:45:01;;;;;;;3.93;2.27;;;5.10;99.90;;;;;;10436211;28;20310;-78
2023/04/01 10:50:34;;;;;;;4.43;2.20;;;5.20;99.90;;;;;;10401082;28;20231;-79
2023/04/01 10:56:25;;;;;;;3.13;2.03;;;5.30;99.90;;;;;;10381479;28;20265;-78
2023/04/01 11:03:04;;;;;;;5.07;2.83;;;5.30;99.90;;;;;;10349981;28;20211;-77
2023/04/01 11:08:56;;;;;;;5.53;3.10;;;5.30;99.90;;;;;;10377947;28;20555;-79
2023/04/01 11:14:40;;;;;;;16.00;5.00;;;5.40;99.90;;;;;;10391848;28;20227;-79
2023/04/01 11:20:26;;;;;;;5.63;3.20;;;5.50;99.90;;;;;;10391961;28;20258;-77
2023/04/01 11:26:01;;;;;;;6.10;4.20;;;5.60;99.90;;;;;;10432557;28;20284;-79
2023/04/01 11:32:25;;;;;;;9.40;4.80;;;5.50;99.90;;;;;;10442868;28;20249;-77
2023/04/01 11:37:52;;;;;;;4.87;3.60;;;5.60;99.90;;;;;;10426727;28;20271;-78
2023/04/01 11:43:43;;;;;;;6.70;3.70;;;5.40;99.90;;;;;;10422708;28;20249;-77
2023/04/01 11:49:56;;;;;;;10.77;5.27;;;5.50;99.90;;;;;;10394377;28;20217;-78
2023/04/01 11:55:56;;;;;;;5.63;3.37;;;5.60;99.90;;;;;;10394371;28;20215;-78
2023/04/01 12:01:40;;;;;;;10.47;6.67;;;5.70;99.90;;;;;;10394670;28;20239;-78
2023/04/01 12:07:20;;;;;;;7.63;5.27;;;5.60;99.90;;;;;;10394768;28;20201;-78
2023/04/01 12:13:04;;;;;;;41.90;20.57;;;5.70;99.90;;;;;;10394316;28;20232;-77
2023/04/01 12:18:42;;;;;;;164.53;72.13;;;5.50;99.90;;;;;;10394633;28;20222;-77
2023/04/01 12:24:22;;;;;;;8.17;5.03;;;5.50;99.90;;;;;;10393699;28;20292;-79
2023/04/01 12:30:13;;;;;;;8.73;4.23;;;5.30;99.90;;;;;;10412415;28;20243;-78
2023/04/01 12:35:56;;;;;;;16.37;9.23;;;5.40;99.90;;;;;;10401273;28;20514;-78
2023/04/01 12:41:39;;;;;;;5.23;3.83;;;5.50;99.90;;;;;;10384434;28;20231;-79
2023/04/01 12:47:22;;;;;;;5.40;4.83;;;5.40;99.90;;;;;;10398709;28;20381;-78
2023/04/01 12:53:22;;;;;;;9.13;5.73;;;5.30;99.90;;;;;;10397145;28;20234;-77
2023/04/01 12:59:03;;;;;;;17.90;8.07;;;5.20;99.90;;;;;;10397736;28;20712;-80
2023/04/01 13:04:27;;;;;;;6.30;2.70;;;5.20;99.90;;;;;;10405469;28;20494;-77
2023/04/01 13:09:50;;;;;;;3.70;2.47;;;4.80;99.90;;;;;;10415617;28;20236;-78
2023/04/01 13:15:30;;;;;;;57.13;16.87;;;4.80;99.90;;;;;;10415992;28;20275;-78
2023/04/01 13:21:06;;;;;;;6.83;3.03;;;4.80;99.90;;;;;;10410848;28;20253;-78
2023/04/01 13:26:35;;;;;;;4.80;3.33;;;4.90;99.90;;;;;;10441210;28;20207;-79
2023/04/01 13:32:20;;;;;;;5.63;3.17;;;5.00;99.90;;;;;;10439892;28;20456;-78
2023/04/01 13:37:48;;;;;;;18.63;11.40;;;5.20;99.90;;;;;;10438064;28;20221;-78
2023/04/01 13:43:32;;;;;;;14.63;8.37;;;5.20;99.90;;;;;;10455612;28;20234;-79
2023/04/01 13:49:25;;;;;;;6.97;3.73;;;5.10;99.90;;;;;;10479740;28;20194;-78
2023/04/01 13:55:13;;;;;;;5.60;3.10;;;5.00;99.90;;;;;;10517345;28;20370;-78
2023/04/01 14:00:39;;;;;;;5.73;3.43;;;4.70;99.90;;;;;;10443160;28;20220;-78
2023/04/01 14:06:07;;;;;;;6.20;3.77;;;4.70;99.90;;;;;;10437606;28;20513;-80
2023/04/01 14:11:58;;;;;;;10.47;5.40;;;4.80;99.90;;;;;;10448423;28;20251;-78
2023/04/01 14:17:40;;;;;;;9.00;4.90;;;4.70;99.90;;;;;;10456119;28;20229;-79
2023/04/01 14:23:11;;;;;;;9.20;4.53;;;4.70;99.90;;;;;;10424020;28;20282;-79
2023/04/01 14:28:50;;;;;;;9.27;4.57;;;4.60;99.90;;;;;;10432028;28;20215;-77
2023/04/01 14:34:27;;;;;;;11.17;7.17;;;4.60;99.90;;;;;;10414856;28;20580;-78
2023/04/01 14:40:07;;;;;;;5.30;3.43;;;4.60;99.90;;;;;;10436574;28;20200;-77
2023/04/01 14:45:44;;;;;;;4.73;3.10;;;4.70;99.90;;;;;;10463118;28;20433;-79
2023/04/01 14:51:38;;;;;;;5.03;2.70;;;4.60;99.90;;;;;;10476767;28;20226;-78
2023/04/01 14:57:14;;;;;;;5.70;3.87;;;4.60;99.90;;;;;;10460744;28;20211;-78
2023/04/01 15:02:44;;;;;;;6.03;3.33;;;4.40;99.90;;;;;;10407386;28;20200;-79
2023/04/01 15:08:23;;;;;;;7.83;3.90;;;4.50;99.90;;;;;;10396148;28;20200;-77
2023/04/01 15:14:08;;;;;;;5.30;3.07;;;4.60;99.90;;;;;;10391341;28;20247;-77
2023/04/01 15:19:50;;;;;;;8.87;4.50;;;4.60;99.90;;;;;;10422316;28;20190;-77
2023/04/01 15:25:29;;;;;;;11.30;5.03;;;4.40;99.90;;;;;;10397802;28;20211;-79
2023/04/01 15:31:03;;;;;;;7.20;5.00;;;4.30;99.90;;;;;;10425650;28;20237;-79
2023/04/01 15:36:26;;;;;;;9.37;5.87;;;4.20;99.90;;;;;;10436088;28;20198;-78
2023/04/01 15:42:12;;;;;;;8.87;5.73;;;4.10;99.90;;;;;;10446909;28;20254;-80
2023/04/01 15:47:38;;;;;;;11.90;7.30;;;4.10;99.90;;;;;;10462023;28;20208;-77
2023/04/01 15:53:17;;;;;;;9.90;7.13;;;4.10;99.90;;;;;;10476457;28;20221;-76
2023/04/01 15:58:59;;;;;;;10.03;6.33;;;4.00;99.90;;;;;;10419187;28;20387;-77
2023/04/01 16:04:45;;;;;;;20.63;9.73;;;3.80;99.90;;;;;;10414730;28;20365;-78
2023/04/01 16:10:22;;;;;;;18.73;7.27;;;3.80;99.90;;;;;;10436842;28;20231;-78
2023/04/01 16:16:05;;;;;;;14.17;6.63;;;3.90;99.90;;;;;;10428612;28;20202;-77
2023/04/01 16:22:06;;;;;;;12.03;6.90;;;3.70;99.90;;;;;;10430140;28;20224;-78
2023/04/01 16:28:05;;;;;;;12.07;7.57;;;3.80;99.90;;;;;;10386732;28;20211;-79
2023/04/01 16:33:35;;;;;;;10.70;6.27;;;3.70;99.90;;;;;;10426036;28;20231;-79
2023/04/01 16:39:09;;;;;;;18.57;7.87;;;3.80;99.90;;;;;;10439382;28;20202;-77
2023/04/01 16:44:30;;;;;;;15.00;7.80;;;3.80;99.90;;;;;;10400020;28;20270;-77
2023/04/01 16:49:59;;;;;;;9.27;5.87;;;3.80;99.90;;;;;;10400101;28;20209;-77
2023/04/01 16:55:22;;;;;;;13.93;7.83;;;3.60;99.90;;;;;;10421256;28;20210;-77
2023/04/01 17:00:52;;;;;;;14.00;7.33;;;3.80;99.90;;;;;;10451107;28;20276;-78
2023/04/01 17:06:20;;;;;;;13.60;7.27;;;3.70;99.90;;;;;;10400276;28;20383;-78
2023/04/01 17:12:11;;;;;;;13.47;6.47;;;3.70;99.90;;;;;;10438520;28;20288;-79
2023/04/01 17:17:51;;;;;;;18.60;9.03;;;3.50;99.90;;;;;;10440960;28;20244;-78
2023/04/01 17:23:14;;;;;;;9.33;6.13;;;;;;;;;;10415969;28;20504;-76
2023/04/01 17:29:33;;;;;;;15.83;7.67;;;3.50;99.90;;;;;;10413189;28;20529;-77
2023/04/01 17:35:11;;;;;;;12.17;5.77;;;3.60;99.90;;;;;;10460881;28;20280;-76
2023/04/01 17:40:52;;;;;;;9.70;5.77;;;3.50;99.90;;;;;;10458600;28;20202;-76
2023/04/01 17:46:40;;;;;;;7.57;4.73;;;3.40;99.90;;;;;;10459680;28;20299;-76
2023/04/01 17:52:27;;;;;;;9.60;4.87;;;3.40;99.90;;;;;;10488890;28;20244;-77
2023/04/01 17:58:18;;;;;;;9.83;5.07;;;3.40;99.90;;;;;;10476768;28;20199;-76
2023/04/01 18:03:57;;;;;;;8.57;4.93;;;3.40;99.90;;;;;;10417863;28;20497;-77
2023/04/01 18:09:20;;;;;;;7.57;5.20;;;3.40;99.90;;;;;;10397629;28;20388;-76
2023/04/01 18:14:57;;;;;;;10.10;5.20;;;3.40;99.90;;;;;;10396199;28;20520;-78
2023/04/01 18:20:32;;;;;;;11.97;6.00;;;3.40;99.90;;;;;;10396656;28;20244;-77
2023/04/01 18:26:08;;;;;;;9.37;5.30;;;3.50;99.90;;;;;;10398589;28;20200;-76
2023/04/01 18:31:55;;;;;;;9.50;4.73;;;3.50;99.90;;;;;;10412813;28;20233;-77
2023/04/01 18:37:31;;;;;;;7.87;5.33;;;3.50;99.90;;;;;;10405741;28;20237;-77
2023/04/01 18:43:20;;;;;;;10.40;4.67;;;3.50;99.90;;;;;;10403475;28;20293;-77
2023/04/01 18:49:46;;;;;;;10.07;4.60;;;3.50;99.90;;;;;;10381237;28;20273;-78
2023/04/01 18:55:23;;;;;;;10.97;4.30;;;3.40;99.90;;;;;;10320704;28;20211;-78
2023/04/01 19:01:05;;;;;;;5.87;3.93;;;3.50;99.90;;;;;;10349495;28;20243;-76
2023/04/01 19:06:33;;;;;;;7.63;4.50;;;3.50;99.90;;;;;;10294107;28;20283;-77
2023/04/01 19:12:11;;;;;;;6.93;4.50;;;3.50;99.90;;;;;;10327739;28;20642;-76
2023/04/01 19:17:50;;;;;;;9.17;4.73;;;3.40;99.90;;;;;;10311067;28;20211;-77
2023/04/01 19:23:19;;;;;;;7.37;4.37;;;3.40;99.90;;;;;;10283121;28;20302;-76
2023/04/01 19:28:51;;;;;;;9.50;4.63;;;3.40;99.90;;;;;;10398239;28;20211;-76
2023/04/01 19:34:18;;;;;;;9.20;4.73;;;3.40;99.90;;;;;;10430735;28;20232;-78
2023/04/01 19:40:05;;;;;;;9.23;5.73;;;3.50;99.90;;;;;;10441433;28;20511;-78
2023/04/01 19:45:45;;;;;;;9.30;5.23;;;3.50;99.90;;;;;;10428889;28;20234;-76
2023/04/01 19:51:27;;;;;;;7.10;4.73;;;3.30;99.90;;;;;;10438872;28;20253;-76
2023/04/01 19:57:26;;;;;;;6.43;4.50;;;3.40;99.90;;;;;;10428786;28;20201;-77
2023/04/01 20:02:58;;;;;;;5.47;4.17;;;3.30;99.90;;;;;;10443146;28;20201;-76
2023/04/01 20:08:28;;;;;;;9.90;4.50;;;3.30;99.90;;;;;;10433047;28;20205;-76
2023/04/01 20:14:05;;;;;;;9.30;4.83;;;3.30;99.90;;;;;;10413523;28;20266;-78
2023/04/01 20:20:12;;;;;;;10.00;4.70;;;3.20;99.90;;;;;;10442917;28;20240;-77
2023/04/01 20:25:53;;;;;;;8.03;4.70;;;3.30;99.90;;;;;;10461628;28;20236;-78
2023/04/01 20:31:50;;;;;;;6.87;4.23;;;3.40;99.90;;;;;;10465666;28;20270;-79
2023/04/01 20:37:35;;;;;;;9.53;4.10;;;3.30;99.90;;;;;;10357223;28;20206;-78
2023/04/01 20:43:14;;;;;;;8.90;4.33;;;3.40;99.90;;;;;;10402284;28;20260;-77
2023/04/01 20:48:38;;;;;;;9.13;4.33;;;3.50;99.90;;;;;;10351867;28;20207;-78
2023/04/01 20:54:11;;;;;;;8.77;5.00;;;3.40;99.90;;;;;;10339780;28;20314;-79
2023/04/01 21:00:07;;;;;;;10.60;3.97;;;3.40;99.90;;;;;;10391119;28;20215;-78
2023/04/01 21:06:14;;;;;;;6.17;3.90;;;3.30;99.90;;;;;;10313435;28;20781;-78
2023/04/01 21:11:44;;;;;;;7.53;4.40;;;3.40;99.90;;;;;;10329287;28;20533;-77
2023/04/01 21:17:27;;;;;;;6.17;3.20;;;3.30;99.90;;;;;;10440884;28;20428;-77
2023/04/01 21:23:02;;;;;;;9.27;4.37;;;3.20;99.90;;;;;;10440324;28;20199;-78
2023/04/01 21:28:35;;;;;;;5.50;3.53;;;3.30;99.90;;;;;;10422574;28;20220;-77
2023/04/01 21:34:21;;;;;;;4.37;3.57;;;3.30;99.90;;;;;;10439773;28;20229;-77
2023/04/01 21:39:57;;;;;;;3.60;2.33;;;3.30;99.90;;;;;;10439700;28;20196;-77
2023/04/01 21:45:42;;;;;;;5.40;2.47;;;3.20;99.90;;;;;;10453510;28;20434;-78
2023/04/01 21:51:43;;;;;;;3.57;2.53;;;3.20;99.90;;;;;;10479270;28;20590;-78
2023/04/01 21:57:26;;;;;;;9.73;3.50;;;3.20;99.90;;;;;;10473490;28;20483;-77
2023/04/01 22:03:11;;;;;;;5.23;3.10;;;3.20;99.90;;;;;;10434944;28;20200;-78
2023/04/01 22:08:48;;;;;;;3.77;2.60;;;3.40;99.90;;;;;;10437842;28;20193;-78
2023/04/01 22:14:13;;;;;;;3.17;2.33;;;3.30;99.90;;;;;;10416261;28;20237;-78
2023/04/01 22:19:57;;;;;;;3.20;1.90;;;3.40;99.90;;;;;;10438358;28;20187;-79
2023/04/01 22:25:21;;;;;;;6.27;2.27;;;3.30;99.90;;;;;;10414240;28;20200;-77
2023/04/01 22:30:56;;;;;;;2.57;2.07;;;3.20;99.90;;;;;;10405063;28;20219;-78
2023/04/01 22:36:44;;;;;;;4.17;2.27;;;3.10;99.90;;;;;;10436558;28;20202;-78
2023/04/01 22:42:43;;;;;;;4.43;2.00;;;3.20;99.90;;;;;;10452524;28;20241;-77
2023/04/01 22:48:16;;;;;;;5.50;2.63;;;3.20;99.90;;;;;;10473266;28;20240;-77
2023/04/01 22:53:54;;;;;;;3.87;2.20;;;3.10;99.90;;;;;;10477975;28;20251;-77
2023/04/01 22:59:21;;;;;;;4.33;2.43;;;3.10;99.90;;;;;;10458552;28;20205;-77
2023/04/01 23:04:48;;;;;;;3.20;2.20;;;3.20;99.90;;;;;;10420694;28;20256;-77
2023/04/01 23:10:21;;;;;;;3.53;2.07;;;3.10;99.90;;;;;;10394628;28;20197;-77
2023/04/01 23:15:44;;;;;;;3.63;2.40;;;3.00;99.90;;;;;;10394653;28;20207;-78
2023/04/01 23:21:40;;;;;;;3.33;2.50;;;3.10;99.90;;;;;;10408649;28;20215;-77
2023/04/01 23:27:20;;;;;;;4.13;2.60;;;2.90;99.90;;;;;;10399420;28;20259;-76
2023/04/01 23:32:41;;;;;;;5.20;2.70;;;3.00;99.90;;;;;;10398961;28;20478;-75
2023/04/01 23:38:03;;;;;;;4.57;2.40;;;3.00;99.90;;;;;;10392994;28;20201;-78
2023/04/01 23:43:31;;;;;;;7.63;3.00;;;3.00;99.90;;;;;;10393636;28;20243;-77
2023/04/01 23:48:53;;;;;;;4.83;2.40;;;3.00;99.90;;;;;;10393890;28;20213;-76
2023/04/01 23:54:19;;;;;;;3.93;2.20;;;3.10;99.90;;;;;;10379743;28;20227;-76
2023/04/01 23:59:40;;;;;;;4.10;2.50;;;3.00;99.90;;;;;;10380559;28;20237;-75
